sensor_id;sensor_type;location;lat;lon;timestamp;pressure;altitude;pressure_sealevel;temperature;humidity
42169;BME280;27838;43.858;25.974;2022-11-23T00:01:28;99962.59;;;13.38;61.06
42169;BME280;27838;43.858;25.974;2022-11-23T00:03:57;99971.25;;;13.40;61.05
42169;BME280;27838;43.858;25.974;2022-11-23T00:06:25;99960.84;;;13.37;60.98
42169;BME280;27838;43.858;25.974;2022-11-23T00:08:52;99972.91;;;13.45;60.68
42169;BME280;27838;43.858;25.974;2022-11-23T00:11:20;99958.00;;;13.47;60.63
42169;BME280;27838;43.858;25.974;2022-11-23T00:13:47;99956.13;;;13.52;60.52
42169;BME280;27838;43.858;25.974;2022-11-23T00:16:16;99956.19;;;13.50;60.83
42169;BME280;27838;43.858;25.974;2022-11-23T00:18:43;99958.81;;;13.49;60.83
42169;BME280;27838;43.858;25.974;2022-11-23T00:21:19;99955.28;;;13.51;60.90
42169;BME280;27838;43.858;25.974;2022-11-23T00:23:46;99946.53;;;13.52;61.15
42169;BME280;27838;43.858;25.974;2022-11-23T00:26:14;99949.22;;;13.51;61.24
42169;BME280;27838;43.858;25.974;2022-11-23T00:28:41;99946.63;;;13.49;61.14
42169;BME280;27838;43.858;25.974;2022-11-23T00:31:16;99937.97;;;13.46;61.09
42169;BME280;27838;43.858;25.974;2022-11-23T00:33:50;99936.13;;;13.51;61.12
42169;BME280;27838;43.858;25.974;2022-11-23T00:36:18;99930.88;;;13.51;60.78
42169;BME280;27838;43.858;25.974;2022-11-23T00:38:45;99933.53;;;13.49;61.02
42169;BME280;27838;43.858;25.974;2022-11-23T00:41:14;99935.34;;;13.47;61.21
42169;BME280;27838;43.858;25.974;2022-11-23T00:43:41;99930.94;;;13.48;61.31
42169;BME280;27838;43.858;25.974;2022-11-23T00:48:35;99933.44;;;13.52;61.00
42169;BME280;27838;43.858;25.974;2022-11-23T00:51:04;99935.13;;;13.55;61.34
42169;BME280;27838;43.858;25.974;2022-11-23T00:53:30;99930.78;;;13.54;61.21
42169;BME280;27838;43.858;25.974;2022-11-23T00:55:57;99935.19;;;13.52;61.66
42169;BME280;27838;43.858;25.974;2022-11-23T00:58:24;99940.50;;;13.49;61.62
42169;BME280;27838;43.858;25.974;2022-11-23T01:01:03;99934.59;;;13.42;62.01
42169;BME280;27838;43.858;25.974;2022-11-23T01:03:30;99939.81;;;13.42;62.28
42169;BME280;27838;43.858;25.974;2022-11-23T01:06:17;99927.66;;;13.39;62.50
42169;BME280;27838;43.858;25.974;2022-11-23T01:08:52;99925.97;;;13.37;62.60
42169;BME280;27838;43.858;25.974;2022-11-23T01:11:20;99916.25;;;13.42;62.33
42169;BME280;27838;43.858;25.974;2022-11-23T01:13:48;99915.16;;;13.51;61.87
42169;BME280;27838;43.858;25.974;2022-11-23T01:16:18;99914.31;;;13.49;61.97
42169;BME280;27838;43.858;25.974;2022-11-23T01:18:44;99898.72;;;13.46;62.15
42169;BME280;27838;43.858;25.974;2022-11-23T01:21:11;99890.75;;;13.49;62.09
42169;BME280;27838;43.858;25.974;2022-11-23T01:23:38;99884.75;;;13.45;62.60
42169;BME280;27838;43.858;25.974;2022-11-23T01:26:07;99874.31;;;13.44;62.53
42169;BME280;27838;43.858;25.974;2022-11-23T01:28:35;99880.22;;;13.52;62.41
42169;BME280;27838;43.858;25.974;2022-11-23T01:31:10;99868.03;;;13.51;62.70
42169;BME280;27838;43.858;25.974;2022-11-23T01:33:37;99866.38;;;13.47;62.88
42169;BME280;27838;43.858;25.974;2022-11-23T01:36:09;99859.53;;;13.43;63.08
42169;BME280;27838;43.858;25.974;2022-11-23T01:38:36;99848.28;;;13.39;63.34
42169;BME280;27838;43.858;25.974;2022-11-23T01:41:04;99857.75;;;13.43;63.58
42169;BME280;27838;43.858;25.974;2022-11-23T01:43:31;99858.59;;;13.44;63.71
42169;BME280;27838;43.858;25.974;2022-11-23T01:45:59;99862.88;;;13.48;63.46
42169;BME280;27838;43.858;25.974;2022-11-23T01:48:36;99855.84;;;13.50;63.71
42169;BME280;27838;43.858;25.974;2022-11-23T01:51:08;99853.22;;;13.50;63.95
42169;BME280;27838;43.858;25.974;2022-11-23T01:53:36;99844.59;;;13.46;63.75
42169;BME280;27838;43.858;25.974;2022-11-23T01:56:06;99850.59;;;13.50;63.87
42169;BME280;27838;43.858;25.974;2022-11-23T01:58:36;99843.50;;;13.55;63.26
42169;BME280;27838;43.858;25.974;2022-11-23T02:01:05;99843.19;;;13.66;63.21
42169;BME280;27838;43.858;25.974;2022-11-23T02:03:33;99839.53;;;13.73;63.22
42169;BME280;27838;43.858;25.974;2022-11-23T02:06:04;99837.84;;;13.70;62.81
42169;BME280;27838;43.858;25.974;2022-11-23T02:08:33;99832.63;;;13.70;63.12
42169;BME280;27838;43.858;25.974;2022-11-23T02:11:01;99827.38;;;13.70;63.39
42169;BME280;27838;43.858;25.974;2022-11-23T02:13:28;99837.59;;;13.79;63.53
42169;BME280;27838;43.858;25.974;2022-11-23T02:15:56;99835.78;;;13.82;63.54
42169;BME280;27838;43.858;25.974;2022-11-23T02:18:28;99822.84;;;13.77;63.73
42169;BME280;27838;43.858;25.974;2022-11-23T02:20:57;99810.72;;;13.73;64.02
42169;BME280;27838;43.858;25.974;2022-11-23T02:24:11;99825.69;;;13.68;64.28
42169;BME280;27838;43.858;25.974;2022-11-23T02:26:41;99803.19;;;13.60;64.72
42169;BME280;27838;43.858;25.974;2022-11-23T02:29:12;99793.63;;;13.59;65.28
42169;BME280;27838;43.858;25.974;2022-11-23T02:31:39;99799.72;;;13.60;65.78
42169;BME280;27838;43.858;25.974;2022-11-23T02:34:05;99792.66;;;13.64;65.75
42169;BME280;27838;43.858;25.974;2022-11-23T02:39:12;99788.25;;;13.64;65.97
42169;BME280;27838;43.858;25.974;2022-11-23T02:44:34;99785.56;;;13.67;66.26
42169;BME280;27838;43.858;25.974;2022-11-23T02:47:03;99779.28;;;13.73;66.27
42169;BME280;27838;43.858;25.974;2022-11-23T02:49:30;99775.75;;;13.75;66.03
42169;BME280;27838;43.858;25.974;2022-11-23T02:51:56;99779.25;;;13.74;66.42
42169;BME280;27838;43.858;25.974;2022-11-23T02:54:23;99769.69;;;13.73;66.16
42169;BME280;27838;43.858;25.974;2022-11-23T02:56:49;99772.31;;;13.73;66.77
42169;BME280;27838;43.858;25.974;2022-11-23T02:59:16;99778.16;;;13.82;66.24
42169;BME280;27838;43.858;25.974;2022-11-23T03:01:42;99778.09;;;13.85;66.33
42169;BME280;27838;43.858;25.974;2022-11-23T03:04:09;99776.53;;;13.77;65.97
42169;BME280;27838;43.858;25.974;2022-11-23T03:06:35;99784.00;;;13.91;65.77
42169;BME280;27838;43.858;25.974;2022-11-23T03:09:02;99796.88;;;13.99;65.73
42169;BME280;27838;43.858;25.974;2022-11-23T03:11:29;99792.25;;;14.09;65.61
42169;BME280;27838;43.858;25.974;2022-11-23T03:13:55;99790.38;;;14.12;65.34
42169;BME280;27838;43.858;25.974;2022-11-23T03:16:22;99788.50;;;14.18;65.18
42169;BME280;27838;43.858;25.974;2022-11-23T03:18:49;99786.72;;;14.18;65.72
42169;BME280;27838;43.858;25.974;2022-11-23T03:21:16;99775.47;;;14.14;66.31
42169;BME280;27838;43.858;25.974;2022-11-23T03:23:43;99774.47;;;14.19;66.39
42169;BME280;27838;43.858;25.974;2022-11-23T03:26:09;99770.91;;;14.21;66.92
42169;BME280;27838;43.858;25.974;2022-11-23T03:28:36;99769.13;;;14.22;66.68
42169;BME280;27838;43.858;25.974;2022-11-23T03:31:02;99767.38;;;14.22;66.60
42169;BME280;27838;43.858;25.974;2022-11-23T03:33:29;99769.09;;;14.23;66.69
42169;BME280;27838;43.858;25.974;2022-11-23T03:35:55;99775.19;;;14.24;67.11
42169;BME280;27838;43.858;25.974;2022-11-23T03:38:22;99766.53;;;14.22;67.04
42169;BME280;27838;43.858;25.974;2022-11-23T03:40:48;99761.53;;;14.14;66.99
42169;BME280;27838;43.858;25.974;2022-11-23T03:43:15;99763.00;;;14.23;67.30
42169;BME280;27838;43.858;25.974;2022-11-23T03:45:41;99770.75;;;14.26;67.65
42169;BME280;27838;43.858;25.974;2022-11-23T03:48:08;99775.03;;;14.30;67.68
42169;BME280;27838;43.858;25.974;2022-11-23T03:50:35;99760.06;;;14.33;67.14
42169;BME280;27838;43.858;25.974;2022-11-23T03:53:02;99760.00;;;14.35;67.13
42169;BME280;27838;43.858;25.974;2022-11-23T03:55:28;99755.56;;;14.37;66.52
42169;BME280;27838;43.858;25.974;2022-11-23T03:57:55;99748.50;;;14.39;66.82
42169;BME280;27838;43.858;25.974;2022-11-23T04:00:26;99746.81;;;14.38;66.94
42169;BME280;27838;43.858;25.974;2022-11-23T04:02:53;99746.81;;;14.38;66.59
42169;BME280;27838;43.858;25.974;2022-11-23T04:05:19;99736.25;;;14.40;66.96
42169;BME280;27838;43.858;25.974;2022-11-23T04:07:46;99747.63;;;14.40;67.28
42169;BME280;27838;43.858;25.974;2022-11-23T04:10:18;99736.31;;;14.38;67.10
42169;BME280;27838;43.858;25.974;2022-11-23T04:12:44;99735.41;;;14.39;67.01
42169;BME280;27838;43.858;25.974;2022-11-23T04:15:11;99735.41;;;14.39;67.35
42169;BME280;27838;43.858;25.974;2022-11-23T04:17:37;99734.59;;;14.37;68.15
42169;BME280;27838;43.858;25.974;2022-11-23T04:20:05;99736.41;;;14.35;68.34
42169;BME280;27838;43.858;25.974;2022-11-23T04:22:32;99728.59;;;14.33;68.10
42169;BME280;27838;43.858;25.974;2022-11-23T04:24:58;99718.16;;;14.32;68.34
42169;BME280;27838;43.858;25.974;2022-11-23T04:27:25;99718.25;;;14.29;68.03
42169;BME280;27838;43.858;25.974;2022-11-23T04:29:51;99726.03;;;14.32;67.67
42169;BME280;27838;43.858;25.974;2022-11-23T04:32:18;99732.09;;;14.32;68.07
42169;BME280;27838;43.858;25.974;2022-11-23T04:34:44;99729.41;;;14.35;67.70
42169;BME280;27838;43.858;25.974;2022-11-23T04:37:11;99728.38;;;14.40;67.36
42169;BME280;27838;43.858;25.974;2022-11-23T04:39:37;99724.88;;;14.41;67.23
42169;BME280;27838;43.858;25.974;2022-11-23T04:42:04;99723.09;;;14.41;67.48
42169;BME280;27838;43.858;25.974;2022-11-23T04:44:31;99731.88;;;14.40;67.39
42169;BME280;27838;43.858;25.974;2022-11-23T04:46:57;99731.09;;;14.38;67.30
42169;BME280;27838;43.858;25.974;2022-11-23T04:49:25;99734.50;;;14.40;67.39
42169;BME280;27838;43.858;25.974;2022-11-23T04:51:51;99729.34;;;14.37;67.64
42169;BME280;27838;43.858;25.974;2022-11-23T04:54:18;99737.09;;;14.42;67.69
42169;BME280;27838;43.858;25.974;2022-11-23T04:56:44;99743.19;;;14.42;68.00
42169;BME280;27838;43.858;25.974;2022-11-23T04:59:11;99738.88;;;14.40;67.99
42169;BME280;27838;43.858;25.974;2022-11-23T05:01:37;99739.63;;;14.43;68.03
42169;BME280;27838;43.858;25.974;2022-11-23T05:04:04;99729.41;;;14.35;68.07
42169;BME280;27838;43.858;25.974;2022-11-23T05:06:31;99735.41;;;14.39;68.02
42169;BME280;27838;43.858;25.974;2022-11-23T05:08:57;99737.97;;;14.41;68.04
42169;BME280;27838;43.858;25.974;2022-11-23T05:11:24;99731.88;;;14.40;68.26
42169;BME280;27838;43.858;25.974;2022-11-23T05:13:51;99734.50;;;14.40;67.91
42169;BME280;27838;43.858;25.974;2022-11-23T05:16:17;99721.44;;;14.39;68.02
42169;BME280;27838;43.858;25.974;2022-11-23T05:18:44;99730.13;;;14.41;67.84
42169;BME280;27838;43.858;25.974;2022-11-23T05:21:10;99729.28;;;14.40;67.75
42169;BME280;27838;43.858;25.974;2022-11-23T05:23:37;99727.53;;;14.39;68.16
42169;BME280;27838;43.858;25.974;2022-11-23T05:26:03;99734.50;;;14.40;67.82
42169;BME280;27838;43.858;25.974;2022-11-23T05:28:30;99734.47;;;14.42;67.65
42169;BME280;27838;43.858;25.974;2022-11-23T05:30:56;99723.31;;;14.35;68.42
42169;BME280;27838;43.858;25.974;2022-11-23T05:33:24;99730.97;;;14.41;68.06
42169;BME280;27838;43.858;25.974;2022-11-23T05:35:50;99736.22;;;14.41;68.25
42169;BME280;27838;43.858;25.974;2022-11-23T05:38:17;99729.16;;;14.43;68.54
42169;BME280;27838;43.858;25.974;2022-11-23T05:40:44;99731.69;;;14.46;68.28
42169;BME280;27838;43.858;25.974;2022-11-23T05:43:11;99730.78;;;14.47;68.15
42169;BME280;27838;43.858;25.974;2022-11-23T05:45:38;99728.16;;;14.47;68.30
42169;BME280;27838;43.858;25.974;2022-11-23T05:48:04;99727.38;;;14.45;68.41
42169;BME280;27838;43.858;25.974;2022-11-23T05:50:31;99729.16;;;14.43;68.84
42169;BME280;27838;43.858;25.974;2022-11-23T05:52:58;99737.94;;;14.42;68.68
42169;BME280;27838;43.858;25.974;2022-11-23T05:55:25;99732.78;;;14.39;68.52
42169;BME280;27838;43.858;25.974;2022-11-23T05:57:52;99730.97;;;14.41;68.33
42169;BME280;27838;43.858;25.974;2022-11-23T06:00:19;99742.34;;;14.42;68.84
42169;BME280;27838;43.858;25.974;2022-11-23T06:02:46;99731.72;;;14.45;68.77
42169;BME280;27838;43.858;25.974;2022-11-23T06:05:12;99730.78;;;14.47;68.10
42169;BME280;27838;43.858;25.974;2022-11-23T06:07:39;99738.59;;;14.49;68.49
42169;BME280;27838;43.858;25.974;2022-11-23T06:10:06;99738.66;;;14.47;68.43
42169;BME280;27838;43.858;25.974;2022-11-23T06:12:32;99735.22;;;14.45;68.41
42169;BME280;27838;43.858;25.974;2022-11-23T06:14:59;99736.03;;;14.47;68.65
42169;BME280;27838;43.858;25.974;2022-11-23T06:17:26;99745.59;;;14.48;68.50
42169;BME280;27838;43.858;25.974;2022-11-23T06:19:52;99743.19;;;14.42;68.73
42169;BME280;27838;43.858;25.974;2022-11-23T06:22:19;99748.50;;;14.39;69.26
42169;BME280;27838;43.858;25.974;2022-11-23T06:24:45;99746.91;;;14.35;69.19
42169;BME280;27838;43.858;25.974;2022-11-23T06:27:12;99752.19;;;14.33;69.24
42169;BME280;27838;43.858;25.974;2022-11-23T06:29:41;99753.03;;;14.34;69.34
42169;BME280;27838;43.858;25.974;2022-11-23T06:32:08;99760.91;;;14.34;69.42
42169;BME280;27838;43.858;25.974;2022-11-23T06:34:34;99759.97;;;14.37;69.55
42169;BME280;27838;43.858;25.974;2022-11-23T06:37:01;99750.41;;;14.34;69.75
42169;BME280;27838;43.858;25.974;2022-11-23T06:39:27;99766.91;;;14.38;69.49
42169;BME280;27838;43.858;25.974;2022-11-23T06:41:54;99754.59;;;14.40;69.40
42169;BME280;27838;43.858;25.974;2022-11-23T06:44:20;99756.28;;;14.42;69.34
42169;BME280;27838;43.858;25.974;2022-11-23T06:46:47;99745.94;;;14.38;69.21
42169;BME280;27838;43.858;25.974;2022-11-23T06:49:13;99745.66;;;14.47;69.05
42169;BME280;27838;43.858;25.974;2022-11-23T06:51:41;99749.94;;;14.49;69.31
42169;BME280;27838;43.858;25.974;2022-11-23T06:54:08;99759.53;;;14.50;69.16
42169;BME280;27838;43.858;25.974;2022-11-23T06:56:34;99760.50;;;14.46;69.51
42169;BME280;27838;43.858;25.974;2022-11-23T06:59:01;99763.19;;;14.45;69.72
42169;BME280;27838;43.858;25.974;2022-11-23T07:01:27;99755.28;;;14.46;69.36
42169;BME280;27838;43.858;25.974;2022-11-23T07:03:54;99750.84;;;14.48;69.66
42169;BME280;27838;43.858;25.974;2022-11-23T07:06:20;99749.03;;;14.50;69.29
42169;BME280;27838;43.858;25.974;2022-11-23T07:08:47;99729.81;;;14.50;69.54
42169;BME280;27838;43.858;25.974;2022-11-23T07:11:13;99742.06;;;14.49;69.51
42169;BME280;27838;43.858;25.974;2022-11-23T07:13:40;99729.00;;;14.48;69.43
42169;BME280;27838;43.858;25.974;2022-11-23T07:16:06;99723.81;;;14.46;69.60
42169;BME280;27838;43.858;25.974;2022-11-23T07:18:33;99716.81;;;14.47;69.88
42169;BME280;27838;43.858;25.974;2022-11-23T07:21:00;99715.91;;;14.48;69.50
42169;BME280;27838;43.858;25.974;2022-11-23T07:23:26;99719.44;;;14.47;70.11
42169;BME280;27838;43.858;25.974;2022-11-23T07:25:53;99724.69;;;14.47;70.34
42169;BME280;27838;43.858;25.974;2022-11-23T07:28:19;99719.31;;;14.50;70.27
42169;BME280;27838;43.858;25.974;2022-11-23T07:30:48;99717.59;;;14.50;70.10
42169;BME280;27838;43.858;25.974;2022-11-23T07:33:16;99718.56;;;14.46;70.77
42169;BME280;27838;43.858;25.974;2022-11-23T07:35:42;99716.97;;;14.42;70.51
42169;BME280;27838;43.858;25.974;2022-11-23T07:38:09;99728.91;;;14.51;70.46
42169;BME280;27838;43.858;25.974;2022-11-23T07:40:36;99735.72;;;14.57;70.40
42169;BME280;27838;43.858;25.974;2022-11-23T07:43:04;99740.91;;;14.60;69.93
42169;BME280;27838;43.858;25.974;2022-11-23T07:45:32;99738.34;;;14.58;70.14
42169;BME280;27838;43.858;25.974;2022-11-23T07:48:00;99746.97;;;14.62;70.53
42169;BME280;27838;43.858;25.974;2022-11-23T07:50:27;99751.31;;;14.63;70.67
42169;BME280;27838;43.858;25.974;2022-11-23T07:52:54;99752.16;;;14.63;70.42
42169;BME280;27838;43.858;25.974;2022-11-23T07:55:22;99746.88;;;14.65;70.81
42169;BME280;27838;43.858;25.974;2022-11-23T07:57:52;99746.88;;;14.65;70.62
42169;BME280;27838;43.858;25.974;2022-11-23T08:00:23;99745.09;;;14.65;70.73
42169;BME280;27838;43.858;25.974;2022-11-23T08:02:50;99765.00;;;14.71;70.28
42169;BME280;27838;43.858;25.974;2022-11-23T08:05:17;99767.59;;;14.72;70.65
42169;BME280;27838;43.858;25.974;2022-11-23T08:07:44;99782.38;;;14.75;70.31
42169;BME280;27838;43.858;25.974;2022-11-23T08:10:11;99784.03;;;14.78;70.25
42169;BME280;27838;43.858;25.974;2022-11-23T08:12:38;99790.09;;;14.80;70.63
42169;BME280;27838;43.858;25.974;2022-11-23T08:15:05;99794.47;;;14.79;70.16
42169;BME280;27838;43.858;25.974;2022-11-23T08:17:32;99794.47;;;14.79;70.14
42169;BME280;27838;43.858;25.974;2022-11-23T08:19:59;99797.91;;;14.81;70.12
42169;BME280;27838;43.858;25.974;2022-11-23T08:22:25;99789.16;;;14.82;70.77
42169;BME280;27838;43.858;25.974;2022-11-23T08:24:52;99785.72;;;14.80;70.40
42169;BME280;27838;43.858;25.974;2022-11-23T08:27:19;99793.41;;;14.85;70.39
42169;BME280;27838;43.858;25.974;2022-11-23T08:29:45;99788.84;;;14.91;70.63
42169;BME280;27838;43.858;25.974;2022-11-23T08:32:12;99773.09;;;14.91;70.36
42169;BME280;27838;43.858;25.974;2022-11-23T08:34:38;99778.19;;;14.96;70.60
42169;BME280;27838;43.858;25.974;2022-11-23T08:37:05;99780.66;;;15.01;70.27
42169;BME280;27838;43.858;25.974;2022-11-23T08:39:31;99783.28;;;15.01;70.40
42169;BME280;27838;43.858;25.974;2022-11-23T08:41:58;99777.19;;;15.00;70.26
42169;BME280;27838;43.858;25.974;2022-11-23T08:44:24;99772.72;;;15.02;70.72
42169;BME280;27838;43.858;25.974;2022-11-23T08:46:51;99774.50;;;15.02;70.26
42169;BME280;27838;43.858;25.974;2022-11-23T08:49:17;99777.03;;;15.05;70.47
42169;BME280;27838;43.858;25.974;2022-11-23T08:51:44;99777.00;;;15.06;70.69
42169;BME280;27838;43.858;25.974;2022-11-23T08:54:10;99773.53;;;15.04;70.51
42169;BME280;27838;43.858;25.974;2022-11-23T08:56:37;99774.31;;;15.08;70.69
42169;BME280;27838;43.858;25.974;2022-11-23T08:59:03;99772.53;;;15.08;70.64
42169;BME280;27838;43.858;25.974;2022-11-23T09:01:30;99766.38;;;15.09;71.12
42169;BME280;27838;43.858;25.974;2022-11-23T09:03:56;99755.03;;;15.09;70.71
42169;BME280;27838;43.858;25.974;2022-11-23T09:06:23;99763.81;;;15.08;71.34
42169;BME280;27838;43.858;25.974;2022-11-23T09:08:54;99752.63;;;15.03;71.28
42169;BME280;27838;43.858;25.974;2022-11-23T09:11:21;99753.41;;;15.05;71.18
42169;BME280;27838;43.858;25.974;2022-11-23T09:13:48;99741.16;;;15.05;71.38
42169;BME280;27838;43.858;25.974;2022-11-23T09:16:14;99746.34;;;15.07;71.25
42169;BME280;27838;43.858;25.974;2022-11-23T09:18:41;99740.88;;;15.13;71.27
42169;BME280;27838;43.858;25.974;2022-11-23T09:21:09;99739.19;;;15.12;71.55
42169;BME280;27838;43.858;25.974;2022-11-23T09:23:35;99737.25;;;15.17;71.11
42169;BME280;27838;43.858;25.974;2022-11-23T09:26:03;99731.06;;;15.18;71.38
42169;BME280;27838;43.858;25.974;2022-11-23T09:28:32;99730.19;;;15.19;71.21
42169;BME280;27838;43.858;25.974;2022-11-23T09:31:01;99722.31;;;15.19;71.41
42169;BME280;27838;43.858;25.974;2022-11-23T09:33:28;99712.66;;;15.20;71.70
42169;BME280;27838;43.858;25.974;2022-11-23T09:36:04;99721.31;;;15.22;71.66
42169;BME280;27838;43.858;25.974;2022-11-23T09:38:31;99719.47;;;15.25;71.81
42169;BME280;27838;43.858;25.974;2022-11-23T09:41:36;99715.03;;;15.27;71.73
42169;BME280;27838;43.858;25.974;2022-11-23T09:50:02;99718.38;;;15.31;71.81
42169;BME280;27838;43.858;25.974;2022-11-23T09:52:38;99711.25;;;15.35;71.90
42169;BME280;27838;43.858;25.974;2022-11-23T09:55:16;99712.09;;;15.35;71.77
42169;BME280;27838;43.858;25.974;2022-11-23T09:57:46;99723.47;;;15.36;71.75
42169;BME280;27838;43.858;25.974;2022-11-23T10:00:21;99720.84;;;15.36;71.65
42169;BME280;27838;43.858;25.974;2022-11-23T10:02:48;99720.72;;;15.39;71.93
42169;BME280;27838;43.858;25.974;2022-11-23T10:05:19;99718.06;;;15.40;71.91
42169;BME280;27838;43.858;25.974;2022-11-23T10:10:46;99697.78;;;15.44;72.07
42169;BME280;27838;43.858;25.974;2022-11-23T10:16:24;99680.00;;;15.52;72.31
42169;BME280;27838;43.858;25.974;2022-11-23T10:19:03;99687.19;;;15.47;73.01
42169;BME280;27838;43.858;25.974;2022-11-23T10:22:00;99687.06;;;15.50;73.24
42169;BME280;27838;43.858;25.974;2022-11-23T10:24:45;99701.00;;;15.52;73.28
42169;BME280;27838;43.858;25.974;2022-11-23T10:27:17;99693.91;;;15.54;73.35
42169;BME280;27838;43.858;25.974;2022-11-23T10:29:44;99702.59;;;15.56;73.35
42169;BME280;27838;43.858;25.974;2022-11-23T10:35:22;99698.03;;;15.61;72.90
42169;BME280;27838;43.858;25.974;2022-11-23T10:37:50;99701.50;;;15.62;73.10
42169;BME280;27838;43.858;25.974;2022-11-23T10:40:20;99692.88;;;15.58;73.37
42169;BME280;27838;43.858;25.974;2022-11-23T10:42:55;99696.94;;;15.67;73.08
42169;BME280;27838;43.858;25.974;2022-11-23T10:45:27;99697.69;;;15.71;73.33
42169;BME280;27838;43.858;25.974;2022-11-23T10:47:58;99692.38;;;15.72;72.98
42169;BME280;27838;43.858;25.974;2022-11-23T10:50:32;99696.59;;;15.78;72.82
42169;BME280;27838;43.858;25.974;2022-11-23T10:55:53;99692.13;;;15.80;73.05
42169;BME280;27838;43.858;25.974;2022-11-23T10:58:30;99684.09;;;15.83;73.45
42169;BME280;27838;43.858;25.974;2022-11-23T11:01:10;99681.44;;;15.84;73.48
42169;BME280;27838;43.858;25.974;2022-11-23T11:03:37;99674.34;;;15.86;73.30
42169;BME280;27838;43.858;25.974;2022-11-23T11:06:04;99680.34;;;15.90;73.32
42169;BME280;27838;43.858;25.974;2022-11-23T11:08:33;99688.25;;;15.90;73.49
42169;BME280;27838;43.858;25.974;2022-11-23T11:11:05;99684.69;;;15.91;73.51
42169;BME280;27838;43.858;25.974;2022-11-23T11:16:03;99682.69;;;15.98;73.39
42169;BME280;27838;43.858;25.974;2022-11-23T11:18:35;99680.00;;;15.99;73.07
42169;BME280;27838;43.858;25.974;2022-11-23T11:21:09;99673.69;;;16.03;73.50
42169;BME280;27838;43.858;25.974;2022-11-23T11:23:50;99670.22;;;16.03;73.43
42169;BME280;27838;43.858;25.974;2022-11-23T11:26:20;99670.09;;;16.06;73.36
42169;BME280;27838;43.858;25.974;2022-11-23T11:28:49;99675.31;;;16.08;72.97
42169;BME280;27838;43.858;25.974;2022-11-23T11:31:55;99680.28;;;16.14;72.74
42169;BME280;27838;43.858;25.974;2022-11-23T11:34:44;99686.47;;;16.13;72.47
42169;BME280;27838;43.858;25.974;2022-11-23T11:37:35;99690.69;;;16.17;72.42
42169;BME280;27838;43.858;25.974;2022-11-23T11:45:31;99688.28;;;16.11;72.36
42169;BME280;27838;43.858;25.974;2022-11-23T11:48:16;99691.84;;;16.10;72.36
42169;BME280;27838;43.858;25.974;2022-11-23T11:51:04;99686.81;;;16.03;72.01
42169;BME280;27838;43.858;25.974;2022-11-23T11:54:04;99686.72;;;16.07;72.02
42169;BME280;27838;43.858;25.974;2022-11-23T11:59:39;99684.16;;;16.05;72.48
42169;BME280;27838;43.858;25.974;2022-11-23T12:07:52;99676.25;;;16.05;72.55
42169;BME280;27838;43.858;25.974;2022-11-23T12:10:27;99672.91;;;16.01;73.02
42169;BME280;27838;43.858;25.974;2022-11-23T12:12:55;99665.00;;;16.01;72.58
42169;BME280;27838;43.858;25.974;2022-11-23T12:15:27;99675.53;;;16.01;72.47
42169;BME280;27838;43.858;25.974;2022-11-23T12:26:25;99710.59;;;16.00;71.84
42169;BME280;27838;43.858;25.974;2022-11-23T12:35:12;99725.81;;;15.92;71.38
42169;BME280;27838;43.858;25.974;2022-11-23T12:44:14;99730.88;;;15.73;70.54
42169;BME280;27838;43.858;25.974;2022-11-23T12:49:50;99735.50;;;15.66;70.28
42169;BME280;27838;43.858;25.974;2022-11-23T12:55:23;99742.91;;;15.55;70.84
42169;BME280;27838;43.858;25.974;2022-11-23T13:00:36;99736.97;;;15.50;70.16
42169;BME280;27838;43.858;25.974;2022-11-23T13:03:27;99737.06;;;15.47;70.42
42169;BME280;27838;43.858;25.974;2022-11-23T13:23:41;99736.28;;;15.45;70.85
42169;BME280;27838;43.858;25.974;2022-11-23T13:26:16;99736.16;;;15.48;70.46
42169;BME280;27838;43.858;25.974;2022-11-23T13:28:47;99732.72;;;15.46;70.21
42169;BME280;27838;43.858;25.974;2022-11-23T13:33:46;99729.31;;;15.44;70.29
42169;BME280;27838;43.858;25.974;2022-11-23T13:36:33;99720.38;;;15.48;69.77
42169;BME280;27838;43.858;25.974;2022-11-23T13:39:03;99719.50;;;15.49;69.99
42169;BME280;27838;43.858;25.974;2022-11-23T13:46:59;99730.69;;;15.54;68.86
42169;BME280;27838;43.858;25.974;2022-11-23T13:49:42;99738.56;;;15.54;68.70
42169;BME280;27838;43.858;25.974;2022-11-23T13:57:41;99722.06;;;15.51;69.02
42169;BME280;27838;43.858;25.974;2022-11-23T14:06:42;99751.81;;;15.51;69.99
42169;BME280;27838;43.858;25.974;2022-11-23T14:14:48;99773.59;;;15.53;70.68
42169;BME280;27838;43.858;25.974;2022-11-23T14:32:07;99786.16;;;15.45;69.75
42169;BME280;27838;43.858;25.974;2022-11-23T14:43:01;99768.09;;;15.36;69.31
42169;BME280;27838;43.858;25.974;2022-11-23T14:45:30;99777.66;;;15.38;69.41
42169;BME280;27838;43.858;25.974;2022-11-23T14:48:27;99772.41;;;15.38;69.21
42169;BME280;27838;43.858;25.974;2022-11-23T14:51:01;99779.47;;;15.36;69.16
42169;BME280;27838;43.858;25.974;2022-11-23T14:53:32;99777.75;;;15.35;69.46
42169;BME280;27838;43.858;25.974;2022-11-23T14:56:00;99778.72;;;15.33;69.17
42169;BME280;27838;43.858;25.974;2022-11-23T14:58:29;99786.59;;;15.33;69.10
42169;BME280;27838;43.858;25.974;2022-11-23T15:01:00;99783.97;;;15.33;69.04
42169;BME280;27838;43.858;25.974;2022-11-23T15:03:30;99779.72;;;15.28;69.00
42169;BME280;27838;43.858;25.974;2022-11-23T15:06:13;99777.03;;;15.30;69.14
42169;BME280;27838;43.858;25.974;2022-11-23T15:09:06;99777.22;;;15.25;69.72
42169;BME280;27838;43.858;25.974;2022-11-23T15:11:36;99782.47;;;15.25;69.29
42169;BME280;27838;43.858;25.974;2022-11-23T15:14:20;99789.53;;;15.23;69.87
42169;BME280;27838;43.858;25.974;2022-11-23T15:16:46;99787.25;;;15.13;69.61
42169;BME280;27838;43.858;25.974;2022-11-23T15:19:17;99787.13;;;15.17;69.47
42169;BME280;27838;43.858;25.974;2022-11-23T15:21:45;99790.59;;;15.18;69.66